sensor_id;sensor_type;location;lat;lon;timestamp;pressure;altitude;pressure_sealevel;temperature;humidity
62103;BME280;48077;48.104;11.702;2022-09-03T00:01:32;95250.16;;;10.92;86.44
62103;BME280;48077;48.104;11.702;2022-09-03T00:04:04;95258.75;;;10.94;86.58
62103;BME280;48077;48.104;11.702;2022-09-03T00:06:43;95260.25;;;10.90;87.29
62103;BME280;48077;48.104;11.702;2022-09-03T00:09:30;95254.03;;;10.84;87.12
62103;BME280;48077;48.104;11.702;2022-09-03T00:12:12;95253.38;;;10.77;87.17
62103;BME280;48077;48.104;11.702;2022-09-03T00:14:49;95254.06;;;10.72;88.09
62103;BME280;48077;48.104;11.702;2022-09-03T00:17:16;95256.72;;;10.72;88.17
62103;BME280;48077;48.104;11.702;2022-09-03T00:19:52;95264.16;;;10.70;88.25
62103;BME280;48077;48.104;11.702;2022-09-03T00:22:20;95270.34;;;10.71;88.59
62103;BME280;48077;48.104;11.702;2022-09-03T00:24:45;95265.81;;;10.71;87.99
62103;BME280;48077;48.104;11.702;2022-09-03T00:27:13;95265.00;;;10.71;88.54
62103;BME280;48077;48.104;11.702;2022-09-03T00:29:51;95251.56;;;10.66;89.29
62103;BME280;48077;48.104;11.702;2022-09-03T00:32:25;95264.75;;;10.72;88.80
62103;BME280;48077;48.104;11.702;2022-09-03T00:34:55;95264.84;;;10.78;89.42
62103;BME280;48077;48.104;11.702;2022-09-03T00:37:20;95268.66;;;10.82;89.92
62103;BME280;48077;48.104;11.702;2022-09-03T00:39:43;95257.19;;;10.81;89.38
62103;BME280;48077;48.104;11.702;2022-09-03T00:45:10;95253.38;;;10.77;88.52
62103;BME280;48077;48.104;11.702;2022-09-03T00:48:04;95254.41;;;10.76;88.36
62103;BME280;48077;48.104;11.702;2022-09-03T00:50:47;95260.31;;;10.78;88.52
62103;BME280;48077;48.104;11.702;2022-09-03T01:01:34;95247.16;;;10.60;88.34
62103;BME280;48077;48.104;11.702;2022-09-03T01:09:40;95274.00;;;10.53;87.89
62103;BME280;48077;48.104;11.702;2022-09-03T01:18:19;95267.88;;;10.29;88.79
62103;BME280;48077;48.104;11.702;2022-09-03T01:29:07;95272.28;;;10.35;87.63
62103;BME280;48077;48.104;11.702;2022-09-03T01:34:42;95272.78;;;10.20;88.16
62103;BME280;48077;48.104;11.702;2022-09-03T01:37:33;95266.53;;;10.15;88.26
62103;BME280;48077;48.104;11.702;2022-09-03T01:40:16;95268.75;;;10.06;88.68
62103;BME280;48077;48.104;11.702;2022-09-03T01:45:53;95267.00;;;10.00;88.86
62103;BME280;48077;48.104;11.702;2022-09-03T01:48:42;95258.47;;;9.86;89.54
62103;BME280;48077;48.104;11.702;2022-09-03T01:59:37;95250.63;;;9.79;91.41
62103;BME280;48077;48.104;11.702;2022-09-03T02:02:15;95262.53;;;9.88;91.53
62103;BME280;48077;48.104;11.702;2022-09-03T02:05:12;95246.06;;;9.91;91.73
62103;BME280;48077;48.104;11.702;2022-09-03T02:07:40;95249.19;;;10.00;92.11
62103;BME280;48077;48.104;11.702;2022-09-03T02:10:07;95243.28;;;9.98;92.03
62103;BME280;48077;48.104;11.702;2022-09-03T02:12:32;95228.91;;;9.87;91.76
62103;BME280;48077;48.104;11.702;2022-09-03T02:14:56;95235.03;;;10.00;92.03
62103;BME280;48077;48.104;11.702;2022-09-03T02:17:20;95242.56;;;10.03;91.60
62103;BME280;48077;48.104;11.702;2022-09-03T02:19:43;95236.69;;;10.01;91.84
62103;BME280;48077;48.104;11.702;2022-09-03T02:22:07;95232.06;;;9.96;92.24
62103;BME280;48077;48.104;11.702;2022-09-03T02:24:31;95229.84;;;9.93;92.63
62103;BME280;48077;48.104;11.702;2022-09-03T02:26:54;95232.84;;;9.97;92.34
62103;BME280;48077;48.104;11.702;2022-09-03T02:29:18;95250.78;;;10.01;92.78
62103;BME280;48077;48.104;11.702;2022-09-03T02:31:43;95253.59;;;10.06;92.35
62103;BME280;48077;48.104;11.702;2022-09-03T02:34:06;95252.28;;;10.09;92.33
62103;BME280;48077;48.104;11.702;2022-09-03T02:36:33;95255.31;;;10.01;92.11
62103;BME280;48077;48.104;11.702;2022-09-03T02:38:57;95250.00;;;10.01;92.33
62103;BME280;48077;48.104;11.702;2022-09-03T02:41:21;95261.47;;;10.01;91.80
62103;BME280;48077;48.104;11.702;2022-09-03T02:43:52;95250.69;;;9.96;91.47
62103;BME280;48077;48.104;11.702;2022-09-03T02:46:21;95252.56;;;9.84;92.42
62103;BME280;48077;48.104;11.702;2022-09-03T02:48:46;95251.78;;;9.83;92.46
62103;BME280;48077;48.104;11.702;2022-09-03T02:51:09;95255.69;;;9.81;92.42
62103;BME280;48077;48.104;11.702;2022-09-03T02:53:33;95256.03;;;9.84;93.08
62103;BME280;48077;48.104;11.702;2022-09-03T02:55:58;95252.09;;;9.87;92.27
62103;BME280;48077;48.104;11.702;2022-09-03T02:58:22;95246.19;;;9.85;91.76
62103;BME280;48077;48.104;11.702;2022-09-03T03:00:45;95253.38;;;9.84;92.16
62103;BME280;48077;48.104;11.702;2022-09-03T03:03:11;95252.31;;;9.85;91.72
62103;BME280;48077;48.104;11.702;2022-09-03T03:05:53;95247.94;;;9.79;91.93
62103;BME280;48077;48.104;11.702;2022-09-03T03:08:21;95260.91;;;9.76;92.25
62103;BME280;48077;48.104;11.702;2022-09-03T03:10:46;95250.63;;;9.67;92.02
62103;BME280;48077;48.104;11.702;2022-09-03T03:13:12;95255.38;;;9.65;92.39
62103;BME280;48077;48.104;11.702;2022-09-03T03:15:35;95249.81;;;9.67;93.21
62103;BME280;48077;48.104;11.702;2022-09-03T03:17:59;95254.66;;;9.70;92.56
62103;BME280;48077;48.104;11.702;2022-09-03T03:20:22;95235.78;;;9.60;91.77
62103;BME280;48077;48.104;11.702;2022-09-03T03:22:46;95266.00;;;9.65;91.61
62103;BME280;48077;48.104;11.702;2022-09-03T03:25:09;95260.69;;;9.53;92.14
62103;BME280;48077;48.104;11.702;2022-09-03T03:27:32;95246.91;;;9.45;92.13
62103;BME280;48077;48.104;11.702;2022-09-03T03:29:56;95254.31;;;9.43;92.45
62103;BME280;48077;48.104;11.702;2022-09-03T03:32:20;95234.53;;;9.39;92.99
62103;BME280;48077;48.104;11.702;2022-09-03T03:34:43;95250.03;;;9.53;92.05
62103;BME280;48077;48.104;11.702;2022-09-03T03:37:06;95249.59;;;9.57;92.01
62103;BME280;48077;48.104;11.702;2022-09-03T03:39:30;95249.13;;;9.48;91.26
62103;BME280;48077;48.104;11.702;2022-09-03T03:41:54;95249.78;;;9.43;91.68
62103;BME280;48077;48.104;11.702;2022-09-03T03:44:18;95255.94;;;9.44;92.66
62103;BME280;48077;48.104;11.702;2022-09-03T03:46:42;95257.78;;;9.43;92.73
62103;BME280;48077;48.104;11.702;2022-09-03T03:49:07;95263.00;;;9.38;92.09
62103;BME280;48077;48.104;11.702;2022-09-03T03:51:30;95275.63;;;9.43;92.56
62103;BME280;48077;48.104;11.702;2022-09-03T03:53:55;95267.84;;;9.41;92.11
62103;BME280;48077;48.104;11.702;2022-09-03T03:56:19;95277.47;;;9.42;91.81
62103;BME280;48077;48.104;11.702;2022-09-03T03:58:42;95275.25;;;9.39;91.80
62103;BME280;48077;48.104;11.702;2022-09-03T04:03:30;95269.00;;;9.22;91.80
62103;BME280;48077;48.104;11.702;2022-09-03T04:05:57;95256.38;;;9.17;92.48
62103;BME280;48077;48.104;11.702;2022-09-03T04:08:22;95251.28;;;9.16;92.45
62103;BME280;48077;48.104;11.702;2022-09-03T04:10:45;95254.06;;;9.09;92.42
62103;BME280;48077;48.104;11.702;2022-09-03T04:13:09;95246.53;;;9.06;92.63
62103;BME280;48077;48.104;11.702;2022-09-03T04:15:33;95252.19;;;9.09;92.98
62103;BME280;48077;48.104;11.702;2022-09-03T04:17:57;95251.28;;;9.16;92.93
62103;BME280;48077;48.104;11.702;2022-09-03T04:20:20;95252.91;;;9.17;92.51
62103;BME280;48077;48.104;11.702;2022-09-03T04:22:43;95259.28;;;9.16;92.54
62103;BME280;48077;48.104;11.702;2022-09-03T04:25:07;95254.06;;;9.09;92.46
62103;BME280;48077;48.104;11.702;2022-09-03T04:27:30;95248.00;;;9.02;93.37
62103;BME280;48077;48.104;11.702;2022-09-03T04:29:54;95252.09;;;9.04;93.21
62103;BME280;48077;48.104;11.702;2022-09-03T04:32:17;95237.69;;;8.94;93.05
62103;BME280;48077;48.104;11.702;2022-09-03T04:34:59;95254.50;;;9.06;93.68
62103;BME280;48077;48.104;11.702;2022-09-03T04:37:22;95258.00;;;9.06;93.49
62103;BME280;48077;48.104;11.702;2022-09-03T04:39:46;95259.97;;;9.11;93.03
62103;BME280;48077;48.104;11.702;2022-09-03T04:42:09;95242.94;;;9.00;93.62
62103;BME280;48077;48.104;11.702;2022-09-03T04:44:32;95267.47;;;9.14;93.52
62103;BME280;48077;48.104;11.702;2022-09-03T04:46:59;95262.97;;;9.15;93.58
62103;BME280;48077;48.104;11.702;2022-09-03T04:49:22;95258.47;;;9.15;93.65
62103;BME280;48077;48.104;11.702;2022-09-03T04:51:47;95265.28;;;9.23;93.68
62103;BME280;48077;48.104;11.702;2022-09-03T04:54:10;95254.41;;;9.24;93.71
62103;BME280;48077;48.104;11.702;2022-09-03T04:56:34;95266.81;;;9.30;94.08
62103;BME280;48077;48.104;11.702;2022-09-03T04:58:59;95264.03;;;9.37;94.29
62103;BME280;48077;48.104;11.702;2022-09-03T05:01:25;95267.50;;;9.49;94.10
62103;BME280;48077;48.104;11.702;2022-09-03T05:03:49;95264.97;;;9.55;93.05
62103;BME280;48077;48.104;11.702;2022-09-03T05:06:16;95272.03;;;9.61;93.56
62103;BME280;48077;48.104;11.702;2022-09-03T05:08:39;95278.03;;;9.68;93.90
62103;BME280;48077;48.104;11.702;2022-09-03T05:11:03;95262.66;;;9.70;94.01
62103;BME280;48077;48.104;11.702;2022-09-03T05:13:27;95297.25;;;9.93;93.29
62103;BME280;48077;48.104;11.702;2022-09-03T05:15:50;95292.72;;;10.06;92.47
62103;BME280;48077;48.104;11.702;2022-09-03T05:18:14;95293.19;;;10.15;91.50
62103;BME280;48077;48.104;11.702;2022-09-03T05:20:37;95290.28;;;10.16;91.39
62103;BME280;48077;48.104;11.702;2022-09-03T05:23:01;95287.16;;;10.19;91.90
62103;BME280;48077;48.104;11.702;2022-09-03T05:25:26;95280.06;;;10.25;91.89
62103;BME280;48077;48.104;11.702;2022-09-03T05:27:50;95273.00;;;10.30;92.16
62103;BME280;48077;48.104;11.702;2022-09-03T05:30:13;95276.69;;;10.41;92.07
62103;BME280;48077;48.104;11.702;2022-09-03T05:32:37;95282.31;;;10.57;91.69
62103;BME280;48077;48.104;11.702;2022-09-03T05:35:00;95286.81;;;10.68;91.39
62103;BME280;48077;48.104;11.702;2022-09-03T05:37:24;95300.81;;;10.75;90.71
62103;BME280;48077;48.104;11.702;2022-09-03T05:39:48;95288.28;;;10.76;90.55
62103;BME280;48077;48.104;11.702;2022-09-03T05:42:11;95312.56;;;10.91;90.09
62103;BME280;48077;48.104;11.702;2022-09-03T05:44:36;95322.28;;;10.97;89.79
62103;BME280;48077;48.104;11.702;2022-09-03T05:47:00;95332.56;;;11.05;89.75
62103;BME280;48077;48.104;11.702;2022-09-03T05:49:23;95336.97;;;11.11;89.07
62103;BME280;48077;48.104;11.702;2022-09-03T05:51:47;95354.91;;;11.16;89.58
62103;BME280;48077;48.104;11.702;2022-09-03T05:54:10;95363.84;;;11.22;90.01
62103;BME280;48077;48.104;11.702;2022-09-03T05:56:35;95358.69;;;11.32;90.02
62103;BME280;48077;48.104;11.702;2022-09-03T05:59:01;95337.41;;;11.37;89.53
62103;BME280;48077;48.104;11.702;2022-09-03T06:01:29;95342.69;;;11.49;89.51
62103;BME280;48077;48.104;11.702;2022-09-03T06:04:01;95334.84;;;11.59;88.98
62103;BME280;48077;48.104;11.702;2022-09-03T06:06:25;95341.16;;;11.70;89.08
62103;BME280;48077;48.104;11.702;2022-09-03T06:09:10;95340.56;;;11.85;88.80
62103;BME280;48077;48.104;11.702;2022-09-03T06:11:37;95332.41;;;11.91;88.60
62103;BME280;48077;48.104;11.702;2022-09-03T06:14:03;95339.03;;;12.06;88.08
62103;BME280;48077;48.104;11.702;2022-09-03T06:16:28;95337.25;;;12.11;87.69
62103;BME280;48077;48.104;11.702;2022-09-03T06:18:52;95336.28;;;12.18;86.84
62103;BME280;48077;48.104;11.702;2022-09-03T06:21:16;95340.97;;;12.27;86.93
62103;BME280;48077;48.104;11.702;2022-09-03T06:23:40;95326.75;;;12.27;86.93
62103;BME280;48077;48.104;11.702;2022-09-03T06:26:08;95333.88;;;12.38;85.76
62103;BME280;48077;48.104;11.702;2022-09-03T06:28:33;95331.91;;;12.50;85.47
62103;BME280;48077;48.104;11.702;2022-09-03T06:30:58;95336.53;;;12.60;84.73
62103;BME280;48077;48.104;11.702;2022-09-03T06:33:21;95340.47;;;12.74;84.14
62103;BME280;48077;48.104;11.702;2022-09-03T06:35:47;95334.13;;;12.81;82.65
62103;BME280;48077;48.104;11.702;2022-09-03T06:38:10;95342.00;;;12.92;83.06
62103;BME280;48077;48.104;11.702;2022-09-03T06:40:34;95344.50;;;12.99;82.72
62103;BME280;48077;48.104;11.702;2022-09-03T06:42:58;95347.25;;;13.04;81.22
62103;BME280;48077;48.104;11.702;2022-09-03T06:45:22;95354.50;;;13.09;81.67
62103;BME280;48077;48.104;11.702;2022-09-03T06:47:46;95346.84;;;13.18;82.00
62103;BME280;48077;48.104;11.702;2022-09-03T06:50:09;95350.09;;;13.25;81.55
62103;BME280;48077;48.104;11.702;2022-09-03T06:52:33;95344.88;;;13.35;81.84
62103;BME280;48077;48.104;11.702;2022-09-03T06:54:56;95353.78;;;13.41;81.70
62103;BME280;48077;48.104;11.702;2022-09-03T06:57:20;95357.88;;;13.48;80.90
62103;BME280;48077;48.104;11.702;2022-09-03T06:59:43;95354.69;;;13.51;80.73
62103;BME280;48077;48.104;11.702;2022-09-03T07:02:07;95363.81;;;13.55;81.25
62103;BME280;48077;48.104;11.702;2022-09-03T07:04:30;95366.81;;;13.59;81.45
62103;BME280;48077;48.104;11.702;2022-09-03T07:06:56;95366.84;;;13.64;81.89
62103;BME280;48077;48.104;11.702;2022-09-03T07:09:20;95372.56;;;13.73;81.54
62103;BME280;48077;48.104;11.702;2022-09-03T07:11:43;95374.97;;;13.74;81.59
62103;BME280;48077;48.104;11.702;2022-09-03T07:14:10;95373.41;;;13.79;82.20
62103;BME280;48077;48.104;11.702;2022-09-03T07:16:35;95373.94;;;13.81;82.04
62103;BME280;48077;48.104;11.702;2022-09-03T07:18:59;95369.41;;;13.81;82.19
62103;BME280;48077;48.104;11.702;2022-09-03T07:21:27;95366.72;;;13.81;82.47
62103;BME280;48077;48.104;11.702;2022-09-03T07:23:53;95367.00;;;13.80;82.81
62103;BME280;48077;48.104;11.702;2022-09-03T07:26:19;95367.00;;;13.80;82.63
62103;BME280;48077;48.104;11.702;2022-09-03T07:28:43;95350.59;;;13.76;83.36
62103;BME280;48077;48.104;11.702;2022-09-03T07:31:19;95368.91;;;13.84;83.00
62103;BME280;48077;48.104;11.702;2022-09-03T07:33:45;95360.78;;;13.79;83.32
62103;BME280;48077;48.104;11.702;2022-09-03T07:36:11;95381.78;;;13.87;83.09
62103;BME280;48077;48.104;11.702;2022-09-03T07:38:36;95387.69;;;13.89;83.42
62103;BME280;48077;48.104;11.702;2022-09-03T07:41:01;95388.00;;;13.93;83.84
62103;BME280;48077;48.104;11.702;2022-09-03T07:43:32;95384.00;;;13.95;84.35
62103;BME280;48077;48.104;11.702;2022-09-03T07:45:55;95388.06;;;13.98;84.57
62103;BME280;48077;48.104;11.702;2022-09-03T07:48:20;95380.25;;;13.96;84.07
62103;BME280;48077;48.104;11.702;2022-09-03T07:50:43;95378.59;;;13.90;83.53
62103;BME280;48077;48.104;11.702;2022-09-03T07:53:07;95382.31;;;13.89;83.44
62103;BME280;48077;48.104;11.702;2022-09-03T07:55:30;95386.41;;;13.97;84.02
62103;BME280;48077;48.104;11.702;2022-09-03T07:57:56;95384.03;;;14.01;84.27
62103;BME280;48077;48.104;11.702;2022-09-03T08:00:23;95379.22;;;14.03;84.68
62103;BME280;48077;48.104;11.702;2022-09-03T08:02:47;95373.63;;;14.04;85.27
62103;BME280;48077;48.104;11.702;2022-09-03T08:05:10;95377.69;;;14.12;85.52
62103;BME280;48077;48.104;11.702;2022-09-03T08:07:34;95377.44;;;14.13;86.44
62103;BME280;48077;48.104;11.702;2022-09-03T08:09:57;95377.97;;;14.15;87.21
62103;BME280;48077;48.104;11.702;2022-09-03T08:12:21;95386.31;;;14.19;86.97
62103;BME280;48077;48.104;11.702;2022-09-03T08:14:44;95383.91;;;14.23;87.38
62103;BME280;48077;48.104;11.702;2022-09-03T08:17:08;95384.75;;;14.28;88.36
62103;BME280;48077;48.104;11.702;2022-09-03T08:19:32;95389.91;;;14.35;88.16
62103;BME280;48077;48.104;11.702;2022-09-03T08:21:56;95375.13;;;14.32;88.29
62103;BME280;48077;48.104;11.702;2022-09-03T08:24:20;95398.06;;;14.50;88.98
62103;BME280;48077;48.104;11.702;2022-09-03T08:26:44;95393.59;;;14.61;89.25
62103;BME280;48077;48.104;11.702;2022-09-03T08:29:08;95386.91;;;14.69;87.80
62103;BME280;48077;48.104;11.702;2022-09-03T08:31:32;95384.00;;;14.75;88.34
62103;BME280;48077;48.104;11.702;2022-09-03T08:33:57;95394.78;;;14.91;88.43
62103;BME280;48077;48.104;11.702;2022-09-03T08:36:23;95386.50;;;14.97;88.66
62103;BME280;48077;48.104;11.702;2022-09-03T08:38:48;95383.84;;;15.08;88.73
62103;BME280;48077;48.104;11.702;2022-09-03T08:46:09;95390.09;;;15.39;87.48
62103;BME280;48077;48.104;11.702;2022-09-03T08:48:33;95394.44;;;15.50;87.42
62103;BME280;48077;48.104;11.702;2022-09-03T08:50:58;95384.78;;;15.59;87.52
62103;BME280;48077;48.104;11.702;2022-09-03T08:56:02;95382.16;;;15.90;86.68
62103;BME280;48077;48.104;11.702;2022-09-03T08:58:29;95384.31;;;16.09;85.58
62103;BME280;48077;48.104;11.702;2022-09-03T09:06:55;95385.88;;;16.41;83.75
62103;BME280;48077;48.104;11.702;2022-09-03T09:14:49;95375.56;;;16.84;82.29
62103;BME280;48077;48.104;11.702;2022-09-03T09:22:50;95374.94;;;17.52;77.48
62103;BME280;48077;48.104;11.702;2022-09-03T09:25:22;95370.31;;;17.63;77.35
62103;BME280;48077;48.104;11.702;2022-09-03T09:30:18;95360.28;;;17.68;76.23
62103;BME280;48077;48.104;11.702;2022-09-03T09:32:42;95367.53;;;17.73;75.48
62103;BME280;48077;48.104;11.702;2022-09-03T09:35:10;95359.16;;;17.74;75.52
62103;BME280;48077;48.104;11.702;2022-09-03T09:37:34;95364.81;;;17.78;75.31
62103;BME280;48077;48.104;11.702;2022-09-03T09:39:59;95365.84;;;17.82;75.28
62103;BME280;48077;48.104;11.702;2022-09-03T09:42:23;95350.75;;;17.86;75.15
62103;BME280;48077;48.104;11.702;2022-09-03T09:44:46;95362.44;;;18.06;75.07
62103;BME280;48077;48.104;11.702;2022-09-03T09:47:21;95350.34;;;18.32;73.61
62103;BME280;48077;48.104;11.702;2022-09-03T09:52:14;95358.50;;;18.51;72.28
62103;BME280;48077;48.104;11.702;2022-09-03T09:54:39;95357.59;;;18.61;73.46
62103;BME280;48077;48.104;11.702;2022-09-03T09:57:05;95359.69;;;18.69;73.06
62103;BME280;48077;48.104;11.702;2022-09-03T09:59:29;95351.41;;;18.85;70.93
62103;BME280;48077;48.104;11.702;2022-09-03T10:02:03;95345.91;;;18.95;69.73
62103;BME280;48077;48.104;11.702;2022-09-03T10:04:30;95356.97;;;19.17;69.46
62103;BME280;48077;48.104;11.702;2022-09-03T10:09:42;95355.06;;;19.37;69.31
62103;BME280;48077;48.104;11.702;2022-09-03T10:12:21;95358.00;;;19.40;68.28
62103;BME280;48077;48.104;11.702;2022-09-03T10:14:54;95347.75;;;19.37;67.86
62103;BME280;48077;48.104;11.702;2022-09-03T10:17:43;95358.66;;;19.51;66.31
62103;BME280;48077;48.104;11.702;2022-09-03T10:20:17;95357.72;;;19.61;66.44
62103;BME280;48077;48.104;11.702;2022-09-03T10:22:53;95354.59;;;19.73;65.60
62103;BME280;48077;48.104;11.702;2022-09-03T10:25:19;95346.19;;;19.74;65.13
62103;BME280;48077;48.104;11.702;2022-09-03T10:27:43;95358.88;;;19.93;64.71
62103;BME280;48077;48.104;11.702;2022-09-03T10:30:08;95360.03;;;20.06;64.02
62103;BME280;48077;48.104;11.702;2022-09-03T10:33:01;95358.84;;;20.12;63.72
62103;BME280;48077;48.104;11.702;2022-09-03T10:35:33;95353.66;;;20.15;63.42
62103;BME280;48077;48.104;11.702;2022-09-03T10:38:09;95359.28;;;20.19;63.26
62103;BME280;48077;48.104;11.702;2022-09-03T10:43:40;95367.13;;;20.01;62.34
62103;BME280;48077;48.104;11.702;2022-09-03T10:46:22;95357.72;;;19.99;62.80
62103;BME280;48077;48.104;11.702;2022-09-03T10:52:05;95347.63;;;20.18;62.12
62103;BME280;48077;48.104;11.702;2022-09-03T10:57:42;95340.22;;;20.98;58.93
62103;BME280;48077;48.104;11.702;2022-09-03T11:00:13;95344.00;;;21.25;57.20
62103;BME280;48077;48.104;11.702;2022-09-03T11:02:58;95343.22;;;21.11;58.25
62103;BME280;48077;48.104;11.702;2022-09-03T11:05:33;95339.69;;;21.24;58.21
62103;BME280;48077;48.104;11.702;2022-09-03T11:08:11;95335.88;;;21.25;56.09
62103;BME280;48077;48.104;11.702;2022-09-03T11:10:40;95335.88;;;21.25;55.09
62103;BME280;48077;48.104;11.702;2022-09-03T11:13:07;95326.53;;;21.17;56.20
62103;BME280;48077;48.104;11.702;2022-09-03T11:15:52;95330.91;;;21.55;57.08
62103;BME280;48077;48.104;11.702;2022-09-03T11:20:52;95314.94;;;22.52;53.98
62103;BME280;48077;48.104;11.702;2022-09-03T11:23:17;95309.78;;;22.82;50.72
62103;BME280;48077;48.104;11.702;2022-09-03T11:25:47;95313.25;;;23.14;50.41
62103;BME280;48077;48.104;11.702;2022-09-03T11:31:09;95307.06;;;23.48;50.91
62103;BME280;48077;48.104;11.702;2022-09-03T11:33:40;95306.25;;;23.39;51.16
62103;BME280;48077;48.104;11.702;2022-09-03T11:36:06;95306.25;;;23.65;47.75
62103;BME280;48077;48.104;11.702;2022-09-03T11:38:29;95300.00;;;23.73;48.22
62103;BME280;48077;48.104;11.702;2022-09-03T11:41:13;95303.50;;;23.39;51.42
62103;BME280;48077;48.104;11.702;2022-09-03T11:43:37;95297.00;;;23.00;51.61
62103;BME280;48077;48.104;11.702;2022-09-03T11:46:06;95296.31;;;23.17;51.79
62103;BME280;48077;48.104;11.702;2022-09-03T11:48:42;95295.84;;;23.67;50.60
62103;BME280;48077;48.104;11.702;2022-09-03T11:51:34;95292.31;;;23.58;50.36
62103;BME280;48077;48.104;11.702;2022-09-03T11:54:04;95291.22;;;23.59;49.41
62103;BME280;48077;48.104;11.702;2022-09-03T11:56:29;95290.38;;;23.50;48.51
62103;BME280;48077;48.104;11.702;2022-09-03T11:59:00;95282.72;;;23.87;47.88
62103;BME280;48077;48.104;11.702;2022-09-03T12:01:26;95292.22;;;24.36;47.24
62103;BME280;48077;48.104;11.702;2022-09-03T12:03:59;95287.25;;;24.86;46.79
62103;BME280;48077;48.104;11.702;2022-09-03T12:12:14;95270.28;;;25.31;44.60
62103;BME280;48077;48.104;11.702;2022-09-03T12:15:04;95278.09;;;25.41;44.19
62103;BME280;48077;48.104;11.702;2022-09-03T12:17:41;95276.28;;;25.66;43.31
62103;BME280;48077;48.104;11.702;2022-09-03T12:20:14;95279.81;;;25.88;42.13
62103;BME280;48077;48.104;11.702;2022-09-03T12:22:38;95265.75;;;26.10;42.62
62103;BME280;48077;48.104;11.702;2022-09-03T12:25:09;95266.53;;;26.44;42.99
62103;BME280;48077;48.104;11.702;2022-09-03T12:27:34;95274.22;;;26.75;43.61
62103;BME280;48077;48.104;11.702;2022-09-03T12:29:59;95258.47;;;26.97;42.55
62103;BME280;48077;48.104;11.702;2022-09-03T12:32:22;95268.97;;;27.07;42.09
62103;BME280;48077;48.104;11.702;2022-09-03T12:34:46;95252.81;;;26.77;41.15
62103;BME280;48077;48.104;11.702;2022-09-03T12:37:21;95263.84;;;26.93;40.61
62103;BME280;48077;48.104;11.702;2022-09-03T12:39:51;95257.91;;;26.79;39.66
62103;BME280;48077;48.104;11.702;2022-09-03T12:42:23;95254.94;;;26.96;39.96
62103;BME280;48077;48.104;11.702;2022-09-03T12:44:47;95252.31;;;27.24;39.96
62103;BME280;48077;48.104;11.702;2022-09-03T12:47:18;95246.88;;;27.53;39.15
62103;BME280;48077;48.104;11.702;2022-09-03T12:49:47;95251.06;;;27.62;39.64
62103;BME280;48077;48.104;11.702;2022-09-03T12:55:27;95255.84;;;27.13;40.03
62103;BME280;48077;48.104;11.702;2022-09-03T13:00:24;95248.13;;;26.78;40.49
62103;BME280;48077;48.104;11.702;2022-09-03T13:03:10;95241.72;;;27.11;39.75
62103;BME280;48077;48.104;11.702;2022-09-03T13:05:45;95236.78;;;27.29;38.56
62103;BME280;48077;48.104;11.702;2022-09-03T13:08:20;95217.00;;;26.82;39.34
62103;BME280;48077;48.104;11.702;2022-09-03T13:10:50;95224.16;;;26.99;40.53
62103;BME280;48077;48.104;11.702;2022-09-03T13:13:31;95222.50;;;27.35;40.14
62103;BME280;48077;48.104;11.702;2022-09-03T13:18:55;95217.78;;;27.76;37.43
62103;BME280;48077;48.104;11.702;2022-09-03T13:26:31;95232.53;;;27.72;37.10
62103;BME280;48077;48.104;11.702;2022-09-03T13:29:15;95231.84;;;27.47;36.76
62103;BME280;48077;48.104;11.702;2022-09-03T13:34:08;95227.94;;;27.88;37.19
62103;BME280;48077;48.104;11.702;2022-09-03T13:36:57;95248.66;;;27.08;40.05
62103;BME280;48077;48.104;11.702;2022-09-03T13:39:29;95248.84;;;26.17;41.52
62103;BME280;48077;48.104;11.702;2022-09-03T13:42:05;95257.94;;;25.67;40.79
62103;BME280;48077;48.104;11.702;2022-09-03T13:44:42;95249.03;;;25.15;42.00
62103;BME280;48077;48.104;11.702;2022-09-03T13:47:40;95243.25;;;24.87;43.29
62103;BME280;48077;48.104;11.702;2022-09-03T13:50:28;95238.00;;;24.43;44.62
62103;BME280;48077;48.104;11.702;2022-09-03T13:55:42;95240.75;;;23.70;46.29
62103;BME280;48077;48.104;11.702;2022-09-03T14:19:30;95256.75;;;21.91;54.45
62103;BME280;48077;48.104;11.702;2022-09-03T14:21:59;95265.88;;;21.72;55.68
62103;BME280;48077;48.104;11.702;2022-09-03T14:24:48;95256.22;;;21.57;56.00
62103;BME280;48077;48.104;11.702;2022-09-03T14:27:09;95254.16;;;21.40;57.07
62103;BME280;48077;48.104;11.702;2022-09-03T14:29:34;95265.22;;;21.30;57.20
62103;BME280;48077;48.104;11.702;2022-09-03T14:39:53;95316.44;;;20.81;59.12
62103;BME280;48077;48.104;11.702;2022-09-03T14:47:49;95420.63;;;17.88;70.97
62103;BME280;48077;48.104;11.702;2022-09-03T14:50:27;95396.78;;;16.95;78.80
62103;BME280;48077;48.104;11.702;2022-09-03T14:59:01;95433.75;;;15.77;88.80
62103;BME280;48077;48.104;11.702;2022-09-03T15:01:27;95448.22;;;15.61;91.51
62103;BME280;48077;48.104;11.702;2022-09-03T15:04:48;95446.84;;;15.58;94.45
62103;BME280;48077;48.104;11.702;2022-09-03T15:10:03;95440.19;;;15.71;97.68
62103;BME280;48077;48.104;11.702;2022-09-03T15:12:43;95436.41;;;15.67;97.31
62103;BME280;48077;48.104;11.702;2022-09-03T15:15:21;95447.72;;;15.69;99.19
62103;BME280;48077;48.104;11.702;2022-09-03T15:20:51;95433.72;;;15.56;98.76
62103;BME280;48077;48.104;11.702;2022-09-03T15:26:16;95445.00;;;15.58;100.00
62103;BME280;48077;48.104;11.702;2022-09-03T15:29:15;95444.47;;;15.62;100.00
62103;BME280;48077;48.104;11.702;2022-09-03T15:34:35;95435.84;;;15.59;100.00
62103;BME280;48077;48.104;11.702;2022-09-03T15:37:10;95437.44;;;15.50;100.00
62103;BME280;48077;48.104;11.702;2022-09-03T15:39:38;95437.41;;;15.40;99.66
62103;BME280;48077;48.104;11.702;2022-09-03T15:42:20;95438.44;;;15.29;100.00
62103;BME280;48077;48.104;11.702;2022-09-03T15:44:51;95446.78;;;15.27;100.00
62103;BME280;48077;48.104;11.702;2022-09-03T15:47:37;95438.69;;;15.22;100.00
62103;BME280;48077;48.104;11.702;2022-09-03T15:50:17;95442.13;;;15.12;100.00
62103;BME280;48077;48.104;11.702;2022-09-03T15:55:39;95438.34;;;14.98;100.00